Time;durP1;ratioP1;P1;durP2;ratioP2;P2;SDS_P1;SDS_P2;PMS_P1;PMS_P2;Temp;Humidity;BMP_temperature;BMP_pressure;BME280_temperature;BME280_humidity;BME280_pressure;Samples;Min_cycle;Max_cycle;Signal;HPM_P1;HPM_P2
2023/10/25 00:02:06;;;;;;;4.97;4.00;;;10.60;99.90;;;;;;4982918;28;20030;-84
2023/10/25 00:04:32;;;;;;;4.80;4.30;;;10.60;99.90;;;;;;4982594;28;20170;-84
2023/10/25 00:06:58;;;;;;;4.75;4.30;;;10.60;99.90;;;;;;4983365;28;20528;-84
2023/10/25 00:09:23;;;;;;;5.30;3.88;;;10.50;99.90;;;;;;4983219;28;20030;-84
2023/10/25 00:11:49;;;;;;;4.03;3.63;;;10.50;99.90;;;;;;4982838;28;20113;-83
2023/10/25 00:14:14;;;;;;;5.00;3.97;;;10.50;99.90;;;;;;4982649;28;20476;-84
2023/10/25 00:16:40;;;;;;;4.20;3.80;;;10.50;99.90;;;;;;4983205;28;20030;-84
2023/10/25 00:19:05;;;;;;;5.32;3.67;;;10.50;99.90;;;;;;4983564;28;20031;-84
2023/10/25 00:21:31;;;;;;;4.30;3.85;;;10.50;99.90;;;;;;4983649;28;20073;-84
2023/10/25 00:23:56;;;;;;;5.82;3.80;;;10.50;99.90;;;;;;4982720;28;20023;-84
2023/10/25 00:26:22;;;;;;;4.82;3.90;;;10.50;99.90;;;;;;4984079;28;20473;-84
2023/10/25 00:28:48;;;;;;;5.03;3.80;;;10.40;99.90;;;;;;4987313;28;20687;-83
2023/10/25 00:31:13;;;;;;;3.63;3.17;;;10.40;99.90;;;;;;4987825;28;20697;-84
2023/10/25 00:33:39;;;;;;;4.45;3.63;;;10.40;99.90;;;;;;4987110;28;20089;-84
2023/10/25 00:36:05;;;;;;;3.83;3.30;;;10.40;99.90;;;;;;4987800;28;20117;-83
2023/10/25 00:38:30;;;;;;;4.40;3.42;;;10.40;99.90;;;;;;4988772;28;21297;-84
2023/10/25 00:40:56;;;;;;;4.18;3.53;;;10.40;99.90;;;;;;4989315;28;20080;-83
2023/10/25 00:43:22;;;;;;;4.65;3.38;;;10.40;99.90;;;;;;4971893;28;20081;-84
2023/10/25 00:46:07;;;;;;;5.63;3.63;;;10.30;99.90;;;;;;4995125;28;20084;-83
2023/10/25 00:48:35;;;;;;;5.32;2.97;;;10.40;99.90;;;;;;5006855;28;20373;-84
2023/10/25 00:51:01;;;;;;;4.78;3.63;;;10.30;99.90;;;;;;5007842;28;20018;-83
2023/10/25 00:53:28;;;;;;;3.67;2.90;;;10.30;99.90;;;;;;4995138;28;20096;-83
2023/10/25 00:55:56;;;;;;;6.30;3.10;;;10.30;99.90;;;;;;4985708;28;20034;-83
2023/10/25 00:58:23;;;;;;;4.32;2.88;;;10.30;99.90;;;;;;4986089;28;20034;-84
2023/10/25 01:00:51;;;;;;;3.78;2.70;;;10.30;99.90;;;;;;4986678;28;20042;-84
2023/10/25 01:03:18;;;;;;;3.35;2.80;;;10.30;99.90;;;;;;4985833;28;20030;-84
2023/10/25 01:05:43;;;;;;;4.22;2.80;;;10.30;99.90;;;;;;4985812;28;20153;-84
2023/10/25 01:08:09;;;;;;;3.42;2.85;;;10.20;99.90;;;;;;4986393;28;20022;-84
2023/10/25 01:10:35;;;;;;;3.65;2.67;;;10.20;99.90;;;;;;4985757;28;20031;-84
2023/10/25 01:13:02;;;;;;;3.58;2.88;;;10.20;99.90;;;;;;4985712;28;20030;-84
2023/10/25 01:15:27;;;;;;;3.13;2.67;;;10.20;99.90;;;;;;4985629;28;20052;-84
2023/10/25 01:17:53;;;;;;;4.07;2.90;;;10.20;99.90;;;;;;4985591;28;20046;-84
2023/10/25 01:20:19;;;;;;;3.85;2.80;;;10.10;99.90;;;;;;4986381;28;20031;-84
2023/10/25 01:22:47;;;;;;;3.63;3.03;;;10.10;99.90;;;;;;4985934;28;20031;-84
2023/10/25 01:25:12;;;;;;;5.00;3.10;;;10.10;99.90;;;;;;4984890;28;20034;-84
2023/10/25 01:27:38;;;;;;;4.03;2.80;;;10.10;99.90;;;;;;4985504;28;20027;-84
2023/10/25 01:30:04;;;;;;;3.47;3.17;;;10.00;99.90;;;;;;4985840;28;20543;-84
2023/10/25 01:32:29;;;;;;;3.90;3.05;;;10.00;99.90;;;;;;4985160;28;20576;-84
2023/10/25 01:34:55;;;;;;;5.97;3.13;;;10.00;99.90;;;;;;4985538;28;20019;-84
2023/10/25 01:37:20;;;;;;;3.90;2.83;;;10.00;99.90;;;;;;4984945;28;20014;-84
2023/10/25 01:39:46;;;;;;;4.72;3.05;;;10.00;99.90;;;;;;4984988;28;20061;-84
2023/10/25 01:42:11;;;;;;;4.80;3.30;;;10.00;99.90;;;;;;4985450;28;20080;-84
2023/10/25 01:44:37;;;;;;;3.47;2.90;;;10.00;99.90;;;;;;4984687;28;20022;-84
2023/10/25 01:47:02;;;;;;;4.47;3.33;;;10.00;99.90;;;;;;4986382;28;20401;-83
2023/10/25 01:49:28;;;;;;;3.40;3.10;;;10.00;99.90;;;;;;4985871;28;20026;-84
2023/10/25 01:51:53;;;;;;;3.20;2.90;;;10.00;99.90;;;;;;4985097;28;21369;-84
2023/10/25 01:54:19;;;;;;;6.57;2.80;;;10.00;99.90;;;;;;4984878;28;20031;-84
2023/10/25 01:56:44;;;;;;;3.35;2.67;;;9.90;99.90;;;;;;4984898;28;20098;-83
2023/10/25 01:59:10;;;;;;;5.10;2.90;;;9.90;99.90;;;;;;4985829;28;20493;-84
2023/10/25 02:01:35;;;;;;;4.47;2.80;;;9.90;99.90;;;;;;4985431;28;20197;-84
2023/10/25 02:04:01;;;;;;;4.00;2.90;;;9.90;99.90;;;;;;4985811;28;20037;-84
2023/10/25 02:06:26;;;;;;;5.37;3.20;;;9.90;99.90;;;;;;4984592;28;20058;-84
2023/10/25 02:08:52;;;;;;;3.65;2.72;;;9.90;99.90;;;;;;4984879;28;21382;-84
2023/10/25 02:11:20;;;;;;;4.90;2.90;;;9.80;99.90;;;;;;4985521;28;20639;-84
2023/10/25 02:13:46;;;;;;;3.33;2.70;;;9.80;99.90;;;;;;4985935;28;20034;-83
2023/10/25 02:16:15;;;;;;;5.33;3.00;;;9.80;99.90;;;;;;4983961;28;20038;-84
2023/10/25 02:18:41;;;;;;;4.30;2.97;;;9.80;99.90;;;;;;4983898;28;20493;-84
2023/10/25 02:21:06;;;;;;;5.80;3.37;;;9.80;99.90;;;;;;4984310;28;20033;-83
2023/10/25 02:23:32;;;;;;;3.20;2.77;;;9.80;99.90;;;;;;4984260;28;20025;-83
2023/10/25 02:25:57;;;;;;;3.60;3.23;;;9.80;99.90;;;;;;4983832;28;20022;-83
2023/10/25 02:28:23;;;;;;;3.90;2.80;;;9.70;99.90;;;;;;4984254;28;20044;-84
2023/10/25 02:30:48;;;;;;;4.83;3.13;;;9.70;99.90;;;;;;4984345;28;21087;-84
2023/10/25 02:33:14;;;;;;;5.90;2.90;;;9.60;99.90;;;;;;4984748;28;20030;-84
2023/10/25 02:35:39;;;;;;;2.77;2.43;;;9.60;99.90;;;;;;4984817;28;20142;-84
2023/10/25 02:38:05;;;;;;;5.40;2.90;;;9.60;99.90;;;;;;4984421;28;20030;-84
2023/10/25 02:40:31;;;;;;;3.43;2.83;;;9.50;99.90;;;;;;4984297;28;20043;-84
2023/10/25 02:42:56;;;;;;;6.47;2.63;;;9.60;99.90;;;;;;4985730;28;20455;-83
2023/10/25 02:45:22;;;;;;;3.63;2.77;;;9.50;99.90;;;;;;4985937;28;20050;-83
2023/10/25 02:47:47;;;;;;;4.83;3.00;;;9.50;99.90;;;;;;4989271;28;20113;-83
2023/10/25 02:50:13;;;;;;;7.05;3.03;;;9.50;99.90;;;;;;4990552;28;20445;-83
2023/10/25 02:52:41;;;;;;;4.00;2.83;;;9.40;99.90;;;;;;4987891;28;20129;-83
2023/10/25 02:55:07;;;;;;;7.67;3.37;;;9.30;99.90;;;;;;4984299;28;20035;-83
2023/10/25 02:57:33;;;;;;;4.55;2.90;;;9.30;99.90;;;;;;4984951;28;20110;-84
2023/10/25 02:59:59;;;;;;;5.43;2.90;;;9.30;99.90;;;;;;4985632;28;20120;-84
2023/10/25 03:02:25;;;;;;;4.00;2.80;;;9.30;99.90;;;;;;4985128;28;20124;-84
2023/10/25 03:04:50;;;;;;;3.20;2.60;;;9.20;99.90;;;;;;4984047;28;21091;-83
2023/10/25 03:07:16;;;;;;;4.53;2.70;;;9.20;99.90;;;;;;4982071;28;20030;-84
2023/10/25 03:09:41;;;;;;;3.97;2.90;;;9.20;99.90;;;;;;4982756;28;20037;-83
2023/10/25 03:12:07;;;;;;;4.03;2.87;;;9.20;99.90;;;;;;4984696;28;20540;-84
2023/10/25 03:14:32;;;;;;;3.77;2.60;;;9.20;99.90;;;;;;4983555;28;20031;-84
2023/10/25 03:16:59;;;;;;;4.97;3.00;;;9.20;99.90;;;;;;4985638;28;20488;-83
2023/10/25 03:19:29;;;;;;;4.27;2.83;;;9.10;99.90;;;;;;4984627;28;20967;-83
2023/10/25 03:21:55;;;;;;;3.27;2.83;;;9.10;99.90;;;;;;4985026;28;20022;-83
2023/10/25 03:24:20;;;;;;;4.47;2.77;;;9.10;99.90;;;;;;4983150;28;20516;-83
2023/10/25 03:26:46;;;;;;;2.93;2.50;;;9.10;99.90;;;;;;4984274;28;20030;-84
2023/10/25 03:29:11;;;;;;;4.97;3.20;;;9.10;99.90;;;;;;4984904;28;20044;-83
2023/10/25 03:31:38;;;;;;;3.90;2.80;;;9.10;99.90;;;;;;4984907;28;20454;-84
2023/10/25 03:34:04;;;;;;;3.15;2.60;;;9.10;99.90;;;;;;4984373;28;20030;-84
2023/10/25 03:36:29;;;;;;;3.20;2.50;;;9.00;99.90;;;;;;4985943;28;20037;-83
2023/10/25 03:38:55;;;;;;;3.63;2.20;;;9.10;99.90;;;;;;4988292;28;20030;-83
2023/10/25 03:41:20;;;;;;;3.43;2.33;;;9.00;99.90;;;;;;4990868;28;20026;-83
2023/10/25 03:43:46;;;;;;;3.90;2.40;;;9.10;99.90;;;;;;4994070;28;20030;-83
2023/10/25 03:46:11;;;;;;;2.97;2.27;;;9.00;99.90;;;;;;5004152;28;20042;-83
2023/10/25 03:48:38;;;;;;;2.67;2.40;;;9.00;99.90;;;;;;5005204;28;20113;-83
2023/10/25 03:51:08;;;;;;;3.07;2.30;;;9.00;99.90;;;;;;4989165;28;20034;-83
2023/10/25 03:53:34;;;;;;;4.53;2.50;;;9.00;99.90;;;;;;4984494;28;20525;-83
2023/10/25 03:56:00;;;;;;;2.63;2.23;;;9.00;99.90;;;;;;4982982;28;20042;-83
2023/10/25 03:58:26;;;;;;;2.83;2.10;;;9.00;99.90;;;;;;4984301;28;20533;-83
2023/10/25 04:01:03;;;;;;;3.77;2.20;;;9.00;99.90;;;;;;4984892;28;20062;-83
2023/10/25 04:03:29;;;;;;;2.63;1.90;;;9.00;99.90;;;;;;4987952;28;20034;-83
2023/10/25 04:05:55;;;;;;;2.40;1.93;;;9.00;99.90;;;;;;4987720;28;20418;-83
2023/10/25 04:08:21;;;;;;;3.43;2.33;;;9.00;99.90;;;;;;4986550;28;20250;-83
2023/10/25 04:10:54;;;;;;;2.73;2.30;;;9.00;99.90;;;;;;4987018;28;20029;-83
2023/10/25 04:13:20;;;;;;;2.60;2.07;;;9.00;99.90;;;;;;4984216;28;20040;-85
2023/10/25 04:16:00;;;;;;;2.80;2.00;;;8.90;99.90;;;;;;4985615;28;20046;-85
2023/10/25 04:18:28;;;;;;;2.13;1.93;;;8.90;99.90;;;;;;4987205;28;20026;-85
2023/10/25 04:20:55;;;;;;;3.67;2.30;;;8.80;99.90;;;;;;4987850;28;20113;-85
2023/10/25 04:23:21;;;;;;;4.50;2.10;;;8.80;99.90;;;;;;4988212;28;20036;-85
2023/10/25 04:25:47;;;;;;;2.80;2.10;;;8.80;99.90;;;;;;4987952;28;20027;-84
2023/10/25 04:28:14;;;;;;;3.03;2.33;;;8.70;99.90;;;;;;4969845;28;20034;-85
2023/10/25 04:30:40;;;;;;;7.50;4.67;;;8.70;99.90;;;;;;4986654;28;20494;-84
2023/10/25 04:33:07;;;;;;;25.90;15.50;;;8.70;99.90;;;;;;4985273;28;20042;-85
2023/10/25 04:35:32;;;;;;;21.40;14.70;;;8.60;99.90;;;;;;4987181;28;20496;-85
2023/10/25 04:37:58;;;;;;;17.27;11.53;;;8.60;99.90;;;;;;4985235;28;20022;-85
2023/10/25 04:40:24;;;;;;;7.07;5.77;;;8.60;99.90;;;;;;4986237;28;20042;-85
2023/10/25 04:42:53;;;;;;;5.07;4.17;;;8.60;99.90;;;;;;4985347;28;20018;-84
2023/10/25 04:45:20;;;;;;;5.20;3.40;;;8.50;99.90;;;;;;4985343;28;20036;-84
2023/10/25 04:47:45;;;;;;;4.90;3.70;;;8.50;99.90;;;;;;4984654;28;20022;-85
2023/10/25 04:50:11;;;;;;;6.90;4.13;;;8.50;99.90;;;;;;4985149;28;20089;-84
2023/10/25 04:52:37;;;;;;;4.93;3.90;;;8.50;99.90;;;;;;4984739;28;20030;-84
2023/10/25 04:55:02;;;;;;;6.33;3.40;;;8.50;99.90;;;;;;4985811;28;20097;-84
2023/10/25 04:57:28;;;;;;;5.30;3.10;;;8.40;99.90;;;;;;4989359;28;20383;-84
2023/10/25 04:59:53;;;;;;;3.77;3.37;;;8.40;99.90;;;;;;4987313;28;20026;-84
2023/10/25 05:02:19;;;;;;;3.77;2.63;;;8.30;99.90;;;;;;4989110;28;20638;-84
2023/10/25 05:04:45;;;;;;;2.70;2.20;;;8.30;99.90;;;;;;4989923;28;20072;-84
2023/10/25 05:07:11;;;;;;;3.13;2.50;;;8.20;99.90;;;;;;4990139;28;20030;-84
2023/10/25 05:09:37;;;;;;;3.00;2.63;;;8.20;99.90;;;;;;4988462;28;20060;-84
2023/10/25 05:12:07;;;;;;;3.30;2.83;;;8.20;99.90;;;;;;4986530;28;20029;-84
2023/10/25 05:14:34;;;;;;;6.70;3.80;;;8.20;99.90;;;;;;4987005;28;20104;-85
2023/10/25 05:17:05;;;;;;;5.17;3.73;;;8.10;99.90;;;;;;4984888;28;20122;-84
2023/10/25 05:19:31;;;;;;;3.60;3.07;;;8.10;99.90;;;;;;4987903;28;21022;-84
2023/10/25 05:21:59;;;;;;;4.20;2.90;;;8.00;99.90;;;;;;4988188;28;20030;-84
2023/10/25 05:24:25;;;;;;;3.40;3.10;;;8.10;99.90;;;;;;4988153;28;20038;-84
2023/10/25 05:26:51;;;;;;;4.13;3.27;;;8.00;99.90;;;;;;4987320;28;20145;-83
2023/10/25 05:29:17;;;;;;;4.50;3.40;;;8.10;99.90;;;;;;4988664;28;20022;-84
2023/10/25 05:31:43;;;;;;;5.47;3.70;;;8.10;99.90;;;;;;4988577;28;20080;-84
2023/10/25 05:34:09;;;;;;;5.40;4.30;;;8.10;99.90;;;;;;4987837;28;20444;-84
2023/10/25 05:36:36;;;;;;;4.93;4.43;;;8.10;99.90;;;;;;4987616;28;20120;-84
2023/10/25 05:39:02;;;;;;;5.67;4.00;;;8.00;99.90;;;;;;4989597;28;20038;-84
2023/10/25 05:41:30;;;;;;;4.10;3.53;;;8.00;99.90;;;;;;4990396;28;20025;-84
2023/10/25 05:44:13;;;;;;;5.63;3.40;;;8.00;99.90;;;;;;4990650;28;20382;-84
2023/10/25 05:46:38;;;;;;;5.63;3.30;;;8.00;99.90;;;;;;4985980;28;20179;-84
2023/10/25 05:49:04;;;;;;;3.67;3.00;;;7.90;99.90;;;;;;4965332;28;20080;-85
2023/10/25 05:51:30;;;;;;;3.17;2.57;;;7.90;99.90;;;;;;4987284;28;20022;-84
2023/10/25 05:53:56;;;;;;;4.50;2.30;;;7.90;99.90;;;;;;4987609;28;20496;-84
2023/10/25 05:56:26;;;;;;;3.17;2.40;;;7.90;99.90;;;;;;4984579;28;20042;-84
2023/10/25 05:58:53;;;;;;;2.80;2.60;;;7.90;99.90;;;;;;4985485;28;20114;-85
2023/10/25 06:01:21;;;;;;;4.23;2.50;;;7.90;99.90;;;;;;4987234;28;21328;-84
2023/10/25 06:03:47;;;;;;;3.07;2.70;;;7.90;99.90;;;;;;4987254;28;20446;-84
2023/10/25 06:06:14;;;;;;;3.53;2.80;;;7.80;99.90;;;;;;4987468;28;20030;-85
2023/10/25 06:08:40;;;;;;;5.70;3.13;;;7.80;99.90;;;;;;4990067;28;20042;-84
2023/10/25 06:11:06;;;;;;;3.47;2.93;;;7.80;99.90;;;;;;4989859;28;20034;-84
2023/10/25 06:13:32;;;;;;;3.50;3.20;;;7.80;99.90;;;;;;4986961;28;20030;-84
2023/10/25 06:15:58;;;;;;;5.20;3.10;;;7.90;99.90;;;;;;4986830;28;20046;-84
2023/10/25 06:18:23;;;;;;;7.13;2.60;;;7.80;99.90;;;;;;4988852;28;20052;-85
2023/10/25 06:20:49;;;;;;;4.27;2.70;;;7.90;99.90;;;;;;4983841;28;20084;-84
2023/10/25 06:23:14;;;;;;;4.77;2.70;;;7.90;99.90;;;;;;4976722;28;20035;-84
2023/10/25 06:25:40;;;;;;;3.40;3.00;;;7.90;99.90;;;;;;4980211;28;20033;-85
2023/10/25 06:28:07;;;;;;;3.73;3.00;;;7.80;99.90;;;;;;4979965;28;20042;-84
2023/10/25 06:30:33;;;;;;;4.53;2.77;;;7.80;99.90;;;;;;4980531;28;20038;-85
2023/10/25 06:32:59;;;;;;;4.53;3.10;;;7.80;99.90;;;;;;4979394;28;20053;-85
2023/10/25 06:35:24;;;;;;;6.77;3.57;;;7.90;99.90;;;;;;4981696;28;20375;-84
2023/10/25 06:37:51;;;;;;;4.20;3.17;;;7.90;99.90;;;;;;4985354;28;20044;-85
2023/10/25 06:40:17;;;;;;;5.50;3.63;;;7.90;99.90;;;;;;4989584;28;20783;-84
2023/10/25 06:42:43;;;;;;;4.30;3.50;;;8.00;99.90;;;;;;5001648;28;20421;-84
2023/10/25 06:45:16;;;;;;;4.33;3.70;;;8.00;99.90;;;;;;5002230;28;20050;-83
2023/10/25 06:47:42;;;;;;;7.13;3.83;;;8.00;99.90;;;;;;4997291;28;20041;-84
2023/10/25 06:50:11;;;;;;;5.57;3.87;;;8.10;99.90;;;;;;4978478;28;20034;-85
2023/10/25 06:52:37;;;;;;;5.00;3.43;;;8.10;99.90;;;;;;4978347;28;20030;-84
2023/10/25 06:55:03;;;;;;;4.50;3.50;;;8.20;99.90;;;;;;4978902;28;20038;-84
2023/10/25 06:57:28;;;;;;;4.37;3.83;;;8.30;99.90;;;;;;4979448;28;20053;-85
2023/10/25 06:59:54;;;;;;;4.67;3.50;;;8.30;99.90;;;;;;4977238;28;20027;-84
2023/10/25 07:02:38;;;;;;;5.63;3.93;;;8.40;99.90;;;;;;4976472;28;20034;-86
2023/10/25 07:05:13;;;;;;;6.30;3.87;;;8.40;99.90;;;;;;4978254;28;20206;-84
2023/10/25 07:07:43;;;;;;;5.53;3.70;;;8.40;99.90;;;;;;4980024;28;20555;-84
2023/10/25 07:10:10;;;;;;;4.70;3.43;;;8.40;99.90;;;;;;4978205;28;20027;-84
2023/10/25 07:12:35;;;;;;;5.87;3.67;;;8.40;99.90;;;;;;4977492;28;20756;-84
2023/10/25 07:15:01;;;;;;;4.17;3.20;;;8.50;99.90;;;;;;4979337;28;20037;-84
2023/10/25 07:17:30;;;;;;;3.87;3.40;;;8.60;99.90;;;;;;4977871;28;20041;-86
2023/10/25 07:19:56;;;;;;;3.53;3.23;;;8.60;99.90;;;;;;4975951;28;20762;-84
2023/10/25 07:22:21;;;;;;;5.77;3.30;;;8.70;99.90;;;;;;4975726;28;20035;-84
2023/10/25 07:24:47;;;;;;;4.23;3.10;;;8.70;99.90;;;;;;4974987;28;20031;-85
2023/10/25 07:27:12;;;;;;;5.13;3.50;;;8.80;99.90;;;;;;4977504;28;20038;-85
2023/10/25 07:29:39;;;;;;;4.70;3.37;;;8.90;99.90;;;;;;4976165;28;20046;-84
2023/10/25 07:32:05;;;;;;;4.20;3.43;;;8.90;99.90;;;;;;4976507;28;20062;-84
2023/10/25 07:34:31;;;;;;;5.00;2.97;;;9.00;99.90;;;;;;4974787;28;20501;-87
2023/10/25 07:36:56;;;;;;;3.87;2.00;;;9.10;99.90;;;;;;4981402;28;20044;-82
2023/10/25 07:39:22;;;;;;;3.40;1.83;;;9.20;99.90;;;;;;4978593;28;20038;-83
2023/10/25 07:41:47;;;;;;;3.60;2.10;;;9.30;99.90;;;;;;4983971;28;20516;-83
2023/10/25 07:44:13;;;;;;;4.67;1.80;;;9.50;99.90;;;;;;4984762;28;20080;-84
2023/10/25 07:46:39;;;;;;;4.05;1.85;;;9.60;99.90;;;;;;4984450;28;20054;-83
2023/10/25 07:49:04;;;;;;;4.70;2.07;;;9.80;99.90;;;;;;4981704;28;20385;-83
2023/10/25 07:51:30;;;;;;;3.83;1.40;;;9.90;99.90;;;;;;4986514;28;20053;-83
2023/10/25 07:53:55;;;;;;;3.83;1.15;;;10.10;99.90;;;;;;4986525;28;20121;-83
2023/10/25 07:56:21;;;;;;;3.47;1.27;;;10.30;99.90;;;;;;4984474;28;20026;-83
2023/10/25 07:58:47;;;;;;;2.80;1.10;;;10.50;99.90;;;;;;4984136;28;20058;-84
2023/10/25 08:01:12;;;;;;;2.83;1.10;;;10.70;99.90;;;;;;4985534;28;20031;-83
2023/10/25 08:03:38;;;;;;;3.72;1.27;;;10.90;99.90;;;;;;4987807;28;20053;-84
2023/10/25 08:06:05;;;;;;;2.50;1.20;;;11.00;99.90;;;;;;4984315;28;20122;-83
2023/10/25 08:08:31;;;;;;;2.92;1.20;;;11.20;99.90;;;;;;4986251;28;20026;-84
2023/10/25 08:11:05;;;;;;;2.30;1.40;;;11.40;99.90;;;;;;4983552;28;20034;-84
2023/10/25 08:13:33;;;;;;;2.63;1.08;;;11.50;99.90;;;;;;4984165;28;20037;-84
2023/10/25 08:16:00;;;;;;;3.95;1.58;;;11.70;99.90;;;;;;4984343;28;20026;-83
2023/10/25 08:18:30;;;;;;;4.30;1.20;;;11.80;99.90;;;;;;4987332;28;20023;-83
2023/10/25 08:20:56;;;;;;;3.75;2.30;;;12.00;99.90;;;;;;4985686;28;20031;-83
2023/10/25 08:23:22;;;;;;;2.47;1.55;;;12.10;99.90;;;;;;4984452;28;20053;-84
2023/10/25 08:25:47;;;;;;;2.53;1.17;;;12.30;99.90;;;;;;4984215;28;20030;-84
2023/10/25 08:28:14;;;;;;;2.20;1.30;;;12.40;99.90;;;;;;4985680;28;20067;-84
2023/10/25 08:30:39;;;;;;;2.47;1.30;;;12.50;99.90;;;;;;4984016;28;20124;-84
2023/10/25 08:33:05;;;;;;;3.28;1.15;;;12.60;99.90;;;;;;4986687;28;20030;-84
2023/10/25 08:35:31;;;;;;;1.35;0.98;;;12.70;99.90;;;;;;4985359;28;20093;-84
2023/10/25 08:37:56;;;;;;;1.83;0.80;;;12.80;99.90;;;;;;4984937;28;20602;-84
2023/10/25 08:40:25;;;;;;;3.03;0.95;;;12.90;99.90;;;;;;4982573;28;20042;-83
2023/10/25 08:42:50;;;;;;;1.58;0.90;;;13.00;99.90;;;;;;4987270;28;20034;-84
2023/10/25 08:45:16;;;;;;;1.25;0.90;;;13.10;99.90;;;;;;4985857;28;20037;-84
2023/10/25 08:47:42;;;;;;;1.50;0.80;;;13.20;99.90;;;;;;4985652;28;20843;-84
2023/10/25 08:50:08;;;;;;;2.42;0.80;;;13.30;99.90;;;;;;4984982;28;20042;-84
2023/10/25 08:52:39;;;;;;;2.88;0.95;;;13.40;99.90;;;;;;4987494;28;20022;-84
2023/10/25 08:55:09;;;;;;;3.25;1.50;;;13.50;99.90;;;;;;4986220;28;20041;-84
2023/10/25 08:57:37;;;;;;;1.98;1.10;;;13.50;99.90;;;;;;4987725;28;20027;-83
2023/10/25 09:00:07;;;;;;;4.03;1.13;;;13.60;99.90;;;;;;4983517;28;20053;-84
2023/10/25 09:02:36;;;;;;;2.13;1.20;;;13.70;99.90;;;;;;4983258;28;20696;-84
2023/10/25 09:05:06;;;;;;;2.70;1.05;;;13.80;99.90;;;;;;4983433;28;20042;-83
2023/10/25 09:07:36;;;;;;;2.70;1.00;;;13.80;99.90;;;;;;4985905;28;20062;-84
2023/10/25 09:10:19;;;;;;;2.20;1.20;;;13.90;99.90;;;;;;4983067;28;20845;-83
2023/10/25 09:12:46;;;;;;;2.35;1.38;;;13.90;99.90;;;;;;4982961;28;20069;-83
2023/10/25 09:15:12;;;;;;;3.22;0.93;;;14.00;99.90;;;;;;4984643;28;20034;-84
2023/10/25 09:17:38;;;;;;;2.15;0.73;;;14.00;99.90;;;;;;4986439;28;20678;-83
2023/10/25 09:20:07;;;;;;;0.70;0.68;;;14.10;99.90;;;;;;4985199;28;20107;-83
2023/10/25 09:22:33;;;;;;;1.10;0.77;;;14.10;99.90;;;;;;4988653;28;20026;-84
2023/10/25 09:25:01;;;;;;;1.58;0.90;;;14.20;99.90;;;;;;4987807;28;20037;-83
2023/10/25 09:27:27;;;;;;;0.82;0.60;;;14.30;99.90;;;;;;4988205;28;20045;-83
2023/10/25 09:30:09;;;;;;;1.10;0.50;;;14.40;99.90;;;;;;4985489;28;20031;-83
2023/10/25 09:32:36;;;;;;;0.68;0.68;;;14.40;99.90;;;;;;4988836;28;20116;-83
2023/10/25 09:35:01;;;;;;;0.55;0.55;;;14.60;99.90;;;;;;4989522;28;21091;-83
2023/10/25 09:37:27;;;;;;;1.15;0.68;;;14.60;99.90;;;;;;4996597;28;20022;-83
2023/10/25 09:39:52;;;;;;;0.90;0.80;;;14.70;99.90;;;;;;4999753;28;20018;-83
2023/10/25 09:42:25;;;;;;;1.05;0.52;;;14.70;99.90;;;;;;5001073;28;20031;-83
2023/10/25 09:44:57;;;;;;;1.83;0.57;;;14.80;99.90;;;;;;4985516;28;20042;-83
2023/10/25 09:47:28;;;;;;;2.25;0.50;;;14.80;99.90;;;;;;4985384;28;20244;-83
2023/10/25 09:50:02;;;;;;;0.75;0.70;;;14.90;99.90;;;;;;4981160;28;20030;-83
2023/10/25 09:52:30;;;;;;;1.55;0.90;;;14.90;99.90;;;;;;4983782;28;20031;-83
2023/10/25 09:55:08;;;;;;;1.38;0.55;;;15.00;99.90;;;;;;4982997;28;20503;-83
2023/10/25 09:57:35;;;;;;;1.35;0.75;;;15.10;99.90;;;;;;4970759;28;20119;-85
2023/10/25 10:00:02;;;;;;;1.25;0.70;;;15.10;99.90;;;;;;4981914;28;20878;-84
2023/10/25 10:02:47;;;;;;;3.28;1.50;;;15.20;99.90;;;;;;4982660;28;20038;-84
2023/10/25 10:05:41;;;;;;;4.85;2.05;;;15.30;99.90;;;;;;4982693;28;20539;-85
2023/10/25 10:08:20;;;;;;;3.88;1.75;;;15.40;99.90;;;;;;4983140;28;20084;-85
2023/10/25 10:11:00;;;;;;;3.05;1.55;;;15.50;99.90;;;;;;4983194;28;20058;-85
2023/10/25 10:13:26;;;;;;;1.60;1.00;;;15.60;99.90;;;;;;4983605;28;20026;-85
2023/10/25 10:16:00;;;;;;;0.70;0.60;;;15.70;99.90;;;;;;4983371;28;20031;-85
2023/10/25 10:18:44;;;;;;;1.42;0.88;;;15.90;99.90;;;;;;4983881;28;20030;-85
2023/10/25 10:21:10;;;;;;;1.55;0.75;;;16.00;99.90;;;;;;4983880;28;20037;-85
2023/10/25 10:23:45;;;;;;;3.15;0.82;;;16.00;99.90;;;;;;4982278;28;20042;-86
2023/10/25 10:26:11;;;;;;;1.50;1.00;;;16.00;99.90;;;;;;4980079;28;20398;-86
2023/10/25 10:28:42;;;;;;;1.52;0.70;;;16.10;99.90;;;;;;4981468;28;20026;-86
2023/10/25 10:31:12;;;;;;;1.20;0.63;;;16.20;99.90;;;;;;4977269;28;20101;-86
2023/10/25 10:33:48;;;;;;;0.80;0.60;;;16.30;99.90;;;;;;4978263;28;20034;-86
2023/10/25 10:36:32;;;;;;;2.50;0.80;;;16.30;99.90;;;;;;4978034;28;20534;-87
2023/10/25 10:39:16;;;;;;;1.00;0.70;;;16.40;99.90;;;;;;4975767;28;20019;-86
2023/10/25 10:41:44;;;;;;;1.10;0.70;;;16.40;99.90;;;;;;4959492;28;20066;-88
2023/10/25 10:44:13;;;;;;;6.20;0.80;;;16.50;99.90;;;;;;4975888;28;20069;-86
2023/10/25 10:47:04;;;;;;;2.58;0.70;;;16.50;99.90;;;;;;4979284;28;20042;-88
2023/10/25 10:49:34;;;;;;;1.85;0.60;;;16.60;99.90;;;;;;4971441;28;20034;-87
2023/10/25 10:52:02;;;;;;;0.85;0.60;;;16.70;99.90;;;;;;4983043;28;20026;-78
2023/10/25 10:54:28;;;;;;;1.02;0.70;;;16.70;99.90;;;;;;4983343;28;20032;-78
2023/10/25 10:56:54;;;;;;;1.58;0.77;;;16.80;99.90;;;;;;4982148;28;20022;-78
2023/10/25 10:59:20;;;;;;;0.43;0.43;;;16.90;99.90;;;;;;4982034;28;20057;-78
2023/10/25 11:01:46;;;;;;;0.68;0.50;;;16.90;99.90;;;;;;4982596;28;20785;-78
2023/10/25 11:04:12;;;;;;;1.88;0.50;;;17.00;99.90;;;;;;4983011;28;20042;-79
2023/10/25 11:06:39;;;;;;;0.47;0.47;;;17.10;99.90;;;;;;4979787;28;20019;-78
2023/10/25 11:09:06;;;;;;;0.47;0.40;;;17.20;99.90;;;;;;4983292;28;20030;-84
2023/10/25 11:11:33;;;;;;;1.58;0.63;;;17.30;99.90;;;;;;4982801;28;20026;-78
2023/10/25 11:13:59;;;;;;;0.85;0.80;;;17.40;99.90;;;;;;4979529;28;20089;-79
2023/10/25 11:16:24;;;;;;;1.85;0.57;;;17.40;99.90;;;;;;4981299;28;20026;-79
2023/10/25 11:18:52;;;;;;;1.00;0.80;;;17.60;99.90;;;;;;4981784;28;20034;-79
2023/10/25 11:21:17;;;;;;;1.38;0.60;;;17.60;99.90;;;;;;4981920;28;20034;-79
2023/10/25 11:23:43;;;;;;;1.13;0.70;;;17.50;99.90;;;;;;4979319;28;20035;-79
2023/10/25 11:26:08;;;;;;;1.17;0.50;;;17.50;99.90;;;;;;4981567;28;20025;-78
2023/10/25 11:28:34;;;;;;;0.95;0.50;;;17.40;99.90;;;;;;4981516;28;21312;-78
2023/10/25 11:31:03;;;;;;;1.73;0.50;;;17.30;99.90;;;;;;4980739;28;20042;-79
2023/10/25 11:33:29;;;;;;;2.50;1.00;;;17.50;99.90;;;;;;4981368;28;20046;-87
2023/10/25 11:35:56;;;;;;;3.03;0.90;;;17.60;99.90;;;;;;4981601;28;20042;-87
2023/10/25 11:38:24;;;;;;;1.60;0.60;;;17.90;99.90;;;;;;4981035;28;20105;-91
2023/10/25 11:40:49;;;;;;;2.65;0.80;;;18.20;99.90;;;;;;4987849;28;20042;-93
2023/10/25 11:43:15;;;;;;;1.65;0.60;;;18.40;99.90;;;;;;4984797;28;20090;-92
2023/10/25 11:45:41;;;;;;;0.68;0.57;;;18.30;99.90;;;;;;4981322;28;20485;-92
2023/10/25 11:48:08;;;;;;;0.52;0.52;;;18.60;99.90;;;;;;4980695;28;20037;-76
2023/10/25 11:50:35;;;;;;;1.05;0.40;;;18.30;99.90;;;;;;4982097;28;20039;-76
2023/10/25 11:53:01;;;;;;;0.90;0.60;;;18.20;99.90;;;;;;4981794;28;20018;-75
2023/10/25 11:55:27;;;;;;;0.50;0.38;;;17.90;99.90;;;;;;4982273;28;20030;-74
2023/10/25 11:57:55;;;;;;;1.83;0.60;;;17.80;99.90;;;;;;4980965;28;20026;-75
2023/10/25 12:00:21;;;;;;;2.08;0.70;;;17.60;99.90;;;;;;4981709;28;20030;-78
2023/10/25 12:02:47;;;;;;;1.02;0.40;;;17.50;99.90;;;;;;4980472;28;20057;-77
2023/10/25 12:05:12;;;;;;;0.50;0.50;;;17.40;99.90;;;;;;4981498;28;20026;-78
2023/10/25 12:07:38;;;;;;;0.77;0.70;;;17.30;99.90;;;;;;4981770;28;20033;-77
2023/10/25 12:10:04;;;;;;;2.35;1.10;;;17.30;99.90;;;;;;4981753;28;20037;-77
2023/10/25 12:12:30;;;;;;;0.43;0.43;;;17.30;99.90;;;;;;4982029;28;20363;-77
2023/10/25 12:14:56;;;;;;;0.90;0.50;;;17.20;99.90;;;;;;4981979;28;20081;-77
2023/10/25 12:17:22;;;;;;;1.67;0.60;;;17.10;99.90;;;;;;4982500;28;20080;-77
2023/10/25 12:19:50;;;;;;;1.27;0.50;;;17.10;99.90;;;;;;4977654;28;20600;-77
2023/10/25 12:22:16;;;;;;;0.95;0.63;;;17.10;99.90;;;;;;4983669;28;20445;-77
2023/10/25 12:24:43;;;;;;;1.88;0.50;;;17.00;99.90;;;;;;4985084;28;20170;-77
2023/10/25 12:27:09;;;;;;;2.85;0.70;;;17.00;99.90;;;;;;4984457;28;20028;-77
2023/10/25 12:29:35;;;;;;;1.60;0.75;;;17.00;99.90;;;;;;4983393;28;20022;-77
2023/10/25 12:32:04;;;;;;;2.13;1.00;;;17.00;99.90;;;;;;4985127;28;20022;-77
2023/10/25 12:34:30;;;;;;;2.10;1.23;;;17.10;99.90;;;;;;4985080;28;20094;-77
2023/10/25 12:36:55;;;;;;;2.10;0.73;;;17.10;99.90;;;;;;4983962;28;20100;-77
2023/10/25 12:39:21;;;;;;;1.27;0.77;;;17.10;99.90;;;;;;4986416;28;20682;-77
2023/10/25 12:41:47;;;;;;;2.00;1.08;;;17.00;99.90;;;;;;4983814;28;20022;-77
2023/10/25 12:44:13;;;;;;;2.25;1.02;;;17.00;99.90;;;;;;4984327;28;20034;-79
2023/10/25 12:46:43;;;;;;;2.67;0.90;;;17.00;99.90;;;;;;4985860;28;20127;-80
2023/10/25 12:49:10;;;;;;;2.88;1.42;;;17.00;99.90;;;;;;4985579;28;20023;-91
2023/10/25 12:51:36;;;;;;;5.10;1.70;;;16.90;99.90;;;;;;4985054;28;20061;-90